This is the latest recevied weather packets stored in our database for station/object VA6NA. If no packets are shown the sender has not sent any weather packets the latest 10 day(s).
| Time | Temp. | Humidity | Pressure | Rain* | Wind** | Luminosity | Snow |
|---|---|---|---|---|---|---|---|
| 1777871421 | 10° C | 50% | 1017.4 hPa | 0 mm | - | - | - |
| 1777869624 | 10° C | 50% | 1017.2 hPa | 0 mm | - | - | - |
| 1777867830 | 10.56° C | 48% | 1016.9 hPa | 0 mm | - | - | - |
| 1777867231 | 10.56° C | 47% | 1016.7 hPa | 0 mm | - | - | - |
| 1777862430 | 12.78° C | 40% | 1015.5 hPa | 0 mm | - | - | - |
| 1777861871 | 13.33° C | 40% | 1015.5 hPa | 0 mm | - | - | - |
| 1777860029 | 13.33° C | 46% | 1015.3 hPa | 0 mm | - | - | - |
| 1777856418 | 14.44° C | 42% | 1014.8 hPa | 0 mm | - | - | - |
| 1777855232 | 15° C | 42% | 1014.5 hPa | 0 mm | - | - | - |
| 1777854016 | 15° C | 45% | 1014.4 hPa | 0 mm | - | - | - |
| 1777852838 | 15° C | 46% | 1014.3 hPa | 0 mm | - | - | - |
| 1777846225 | 16.11° C | 40% | 1013.4 hPa | 0 mm | - | - | - |
| 1777845027 | 16.11° C | 41% | 1013.2 hPa | 0 mm | - | - | - |
| 1777842040 | 16.11° C | 41% | 1013.4 hPa | 0 mm | - | - | - |
| 1777840823 | 16.67° C | 41% | 1013.4 hPa | 0 mm | - | - | - |
| 1777839625 | 16.11° C | 41% | 1013.4 hPa | 0 mm | - | - | - |
| 1777838426 | 16.67° C | 41% | 1013.2 hPa | 0 mm | - | - | - |
| 1777836638 | 17.22° C | 40% | 1013 hPa | 0 mm | - | - | - |
| 1777834217 | 18.89° C | 39% | 1012.9 hPa | 0 mm | - | - | - |
| 1777831847 | 18.89° C | 38% | 1012.9 hPa | 0 mm | - | - | - |
| 1777829426 | 18.33° C | 40% | 1012.8 hPa | 0 mm | - | - | - |
| 1777825233 | 17.78° C | 46% | 1012.7 hPa | 0 mm | - | - | - |
| 1777824636 | 17.22° C | 48% | 1012.7 hPa | 0 mm | - | - | - |
| 1777821028 | 15.56° C | 51% | 1012.6 hPa | 0 mm | - | - | - |
| 1777820424 | 15.56° C | 51% | 1012.4 hPa | 0 mm | - | - | - |
* Rain latest hour (hover to see other rain measurements)
** Current wind speed in m/s (hover to see current wind gust speed)